sensor_id;sensor_type;location;lat;lon;timestamp;pressure;altitude;pressure_sealevel;temperature;humidity
68634;BME280;55625;47.072;22.192;2023-02-28T00:01:32;100721.31;;;0.61;100.00
68634;BME280;55625;47.072;22.192;2023-02-28T00:03:58;100724.59;;;0.63;100.00
68634;BME280;55625;47.072;22.192;2023-02-28T00:06:26;100717.84;;;0.64;100.00
68634;BME280;55625;47.072;22.192;2023-02-28T00:08:52;100716.59;;;0.61;100.00
68634;BME280;55625;47.072;22.192;2023-02-28T00:11:18;100711.81;;;0.62;100.00
68634;BME280;55625;47.072;22.192;2023-02-28T00:13:46;100699.72;;;0.58;100.00
68634;BME280;55625;47.072;22.192;2023-02-28T00:16:20;100701.34;;;0.59;100.00
68634;BME280;55625;47.072;22.192;2023-02-28T00:18:47;100713.22;;;0.56;100.00
68634;BME280;55625;47.072;22.192;2023-02-28T00:21:14;100717.91;;;0.52;100.00
68634;BME280;55625;47.072;22.192;2023-02-28T00:23:40;100719.91;;;0.51;100.00
68634;BME280;55625;47.072;22.192;2023-02-28T00:26:12;100721.44;;;0.49;100.00
68634;BME280;55625;47.072;22.192;2023-02-28T00:28:38;100729.00;;;0.48;100.00
68634;BME280;55625;47.072;22.192;2023-02-28T00:31:04;100736.28;;;0.53;100.00
68634;BME280;55625;47.072;22.192;2023-02-28T00:33:30;100738.72;;;0.54;100.00
68634;BME280;55625;47.072;22.192;2023-02-28T00:36:09;100739.97;;;0.57;100.00
68634;BME280;55625;47.072;22.192;2023-02-28T00:38:36;100749.09;;;0.54;100.00
68634;BME280;55625;47.072;22.192;2023-02-28T00:41:02;100753.50;;;0.55;100.00
68634;BME280;55625;47.072;22.192;2023-02-28T00:43:36;100750.69;;;0.55;100.00
68634;BME280;55625;47.072;22.192;2023-02-28T00:46:03;100760.25;;;0.54;100.00
68634;BME280;55625;47.072;22.192;2023-02-28T00:48:30;100763.50;;;0.56;100.00
68634;BME280;55625;47.072;22.192;2023-02-28T00:50:55;100757.09;;;0.55;100.00
68634;BME280;55625;47.072;22.192;2023-02-28T00:53:21;100754.75;;;0.57;100.00
68634;BME280;55625;47.072;22.192;2023-02-28T00:55:49;100756.28;;;0.55;100.00
68634;BME280;55625;47.072;22.192;2023-02-28T00:58:15;100753.78;;;0.50;100.00
68634;BME280;55625;47.072;22.192;2023-02-28T01:00:41;100770.53;;;0.50;100.00
68634;BME280;55625;47.072;22.192;2023-02-28T01:03:07;100773.78;;;0.52;100.00
68634;BME280;55625;47.072;22.192;2023-02-28T01:05:32;100773.84;;;0.55;100.00
68634;BME280;55625;47.072;22.192;2023-02-28T01:07:58;100772.16;;;0.51;100.00
68634;BME280;55625;47.072;22.192;2023-02-28T01:10:25;100784.50;;;0.50;100.00
68634;BME280;55625;47.072;22.192;2023-02-28T01:12:51;100782.41;;;0.47;100.00
68634;BME280;55625;47.072;22.192;2023-02-28T01:15:17;100784.84;;;0.48;100.00
68634;BME280;55625;47.072;22.192;2023-02-28T01:17:43;100781.34;;;0.51;100.00
68634;BME280;55625;47.072;22.192;2023-02-28T01:20:09;100781.78;;;0.53;100.00
68634;BME280;55625;47.072;22.192;2023-02-28T01:22:35;100788.91;;;0.51;100.00
68634;BME280;55625;47.072;22.192;2023-02-28T01:25:01;100769.34;;;0.51;100.00
68634;BME280;55625;47.072;22.192;2023-02-28T01:27:27;100777.00;;;0.54;100.00
68634;BME280;55625;47.072;22.192;2023-02-28T01:29:53;100782.50;;;0.50;100.00
68634;BME280;55625;47.072;22.192;2023-02-28T01:32:19;100774.22;;;0.54;100.00
68634;BME280;55625;47.072;22.192;2023-02-28T01:34:45;100769.09;;;0.56;100.00
68634;BME280;55625;47.072;22.192;2023-02-28T01:37:11;100774.66;;;0.56;100.00
68634;BME280;55625;47.072;22.192;2023-02-28T01:39:37;100777.91;;;0.58;100.00
68634;BME280;55625;47.072;22.192;2023-02-28T01:42:03;100771.59;;;0.61;100.00
68634;BME280;55625;47.072;22.192;2023-02-28T01:45:22;100782.69;;;0.57;100.00
68634;BME280;55625;47.072;22.192;2023-02-28T01:47:45;100780.47;;;0.63;100.00
68634;BME280;55625;47.072;22.192;2023-02-28T01:50:18;100780.91;;;0.65;100.00
68634;BME280;55625;47.072;22.192;2023-02-28T01:52:47;100796.50;;;0.66;100.00
68634;BME280;55625;47.072;22.192;2023-02-28T01:55:16;100782.88;;;0.65;100.00
68634;BME280;55625;47.072;22.192;2023-02-28T01:57:52;100775.56;;;0.60;100.00
68634;BME280;55625;47.072;22.192;2023-02-28T02:00:24;100773.94;;;0.59;100.00
68634;BME280;55625;47.072;22.192;2023-02-28T02:02:57;100774.75;;;0.59;100.00
68634;BME280;55625;47.072;22.192;2023-02-28T02:05:30;100780.34;;;0.59;100.00
68634;BME280;55625;47.072;22.192;2023-02-28T02:08:13;100781.78;;;0.53;100.00
68634;BME280;55625;47.072;22.192;2023-02-28T02:10:50;100786.66;;;0.56;100.00
68634;BME280;55625;47.072;22.192;2023-02-28T02:16:56;100771.06;;;0.55;100.00
68634;BME280;55625;47.072;22.192;2023-02-28T02:25:44;100779.44;;;0.55;100.00
68634;BME280;55625;47.072;22.192;2023-02-28T02:34:36;100754.22;;;0.52;100.00
68634;BME280;55625;47.072;22.192;2023-02-28T02:39:54;100777.00;;;0.54;100.00
68634;BME280;55625;47.072;22.192;2023-02-28T02:45:42;100780.06;;;0.49;100.00
68634;BME280;55625;47.072;22.192;2023-02-28T02:48:13;100796.03;;;0.48;100.00
68634;BME280;55625;47.072;22.192;2023-02-28T02:50:55;100800.78;;;0.48;100.00
68634;BME280;55625;47.072;22.192;2023-02-28T02:53:36;100800.88;;;0.51;100.00
68634;BME280;55625;47.072;22.192;2023-02-28T02:56:04;100793.78;;;0.54;100.00
68634;BME280;55625;47.072;22.192;2023-02-28T02:58:39;100777.72;;;0.51;100.00
68634;BME280;55625;47.072;22.192;2023-02-28T03:01:12;100776.13;;;0.50;100.00
68634;BME280;55625;47.072;22.192;2023-02-28T03:03:39;100768.91;;;0.49;100.00
68634;BME280;55625;47.072;22.192;2023-02-28T03:06:05;100763.22;;;0.45;100.00
68634;BME280;55625;47.072;22.192;2023-02-28T03:08:37;100765.22;;;0.45;100.00
68634;BME280;55625;47.072;22.192;2023-02-28T03:11:06;100761.16;;;0.42;100.00
68634;BME280;55625;47.072;22.192;2023-02-28T03:16:36;100748.75;;;0.40;100.00
68634;BME280;55625;47.072;22.192;2023-02-28T03:25:13;100758.91;;;0.48;100.00
68634;BME280;55625;47.072;22.192;2023-02-28T03:27:54;100757.75;;;0.49;100.00
68634;BME280;55625;47.072;22.192;2023-02-28T03:33:36;100754.69;;;0.38;100.00
68634;BME280;55625;47.072;22.192;2023-02-28T03:36:13;100751.81;;;0.35;100.00
68634;BME280;55625;47.072;22.192;2023-02-28T03:39:04;100754.59;;;0.35;100.00
68634;BME280;55625;47.072;22.192;2023-02-28T03:42:06;100764.59;;;0.36;100.00
68634;BME280;55625;47.072;22.192;2023-02-28T03:44:41;100773.69;;;0.33;100.00
68634;BME280;55625;47.072;22.192;2023-02-28T03:47:48;100768.91;;;0.33;100.00
68634;BME280;55625;47.072;22.192;2023-02-28T03:53:33;100772.97;;;0.36;100.00
68634;BME280;55625;47.072;22.192;2023-02-28T03:56:16;100774.94;;;0.35;100.00
68634;BME280;55625;47.072;22.192;2023-02-28T03:58:57;100776.94;;;0.35;100.00
68634;BME280;55625;47.072;22.192;2023-02-28T04:01:45;100774.13;;;0.35;100.00
68634;BME280;55625;47.072;22.192;2023-02-28T04:04:13;100776.56;;;0.36;100.00
68634;BME280;55625;47.072;22.192;2023-02-28T04:06:40;100783.22;;;0.32;100.00
68634;BME280;55625;47.072;22.192;2023-02-28T04:09:11;100786.84;;;0.32;100.00
68634;BME280;55625;47.072;22.192;2023-02-28T04:11:42;100794.84;;;0.34;100.00
68634;BME280;55625;47.072;22.192;2023-02-28T04:14:11;100788.81;;;0.32;100.00
68634;BME280;55625;47.072;22.192;2023-02-28T04:16:40;100792.88;;;0.34;100.00
68634;BME280;55625;47.072;22.192;2023-02-28T04:19:08;100786.34;;;0.30;100.00
68634;BME280;55625;47.072;22.192;2023-02-28T04:24:12;100791.84;;;0.26;100.00
68634;BME280;55625;47.072;22.192;2023-02-28T04:26:51;100784.28;;;0.27;100.00
68634;BME280;55625;47.072;22.192;2023-02-28T04:29:30;100786.72;;;0.28;100.00
68634;BME280;55625;47.072;22.192;2023-02-28T04:31:57;100791.03;;;0.26;100.00
68634;BME280;55625;47.072;22.192;2023-02-28T04:34:24;100789.50;;;0.28;100.00
68634;BME280;55625;47.072;22.192;2023-02-28T04:36:50;100781.94;;;0.29;100.00
68634;BME280;55625;47.072;22.192;2023-02-28T04:39:17;100787.44;;;0.25;100.00
68634;BME280;55625;47.072;22.192;2023-02-28T04:41:47;100789.78;;;0.23;100.00
68634;BME280;55625;47.072;22.192;2023-02-28T04:44:14;100790.50;;;0.20;100.00
68634;BME280;55625;47.072;22.192;2023-02-28T04:46:41;100780.59;;;0.23;100.00
68634;BME280;55625;47.072;22.192;2023-02-28T04:49:07;100795.72;;;0.22;100.00
68634;BME280;55625;47.072;22.192;2023-02-28T04:51:35;100790.13;;;0.22;100.00
68634;BME280;55625;47.072;22.192;2023-02-28T04:54:00;100793.00;;;0.25;100.00
68634;BME280;55625;47.072;22.192;2023-02-28T04:56:26;100786.72;;;0.28;100.00
68634;BME280;55625;47.072;22.192;2023-02-28T04:58:52;100787.53;;;0.29;100.00
68634;BME280;55625;47.072;22.192;2023-02-28T05:01:30;100782.66;;;0.26;100.00
68634;BME280;55625;47.072;22.192;2023-02-28T05:03:59;100789.06;;;0.26;100.00
68634;BME280;55625;47.072;22.192;2023-02-28T05:06:29;100784.53;;;0.22;100.00
68634;BME280;55625;47.072;22.192;2023-02-28T05:08:55;100789.06;;;0.26;100.00
68634;BME280;55625;47.072;22.192;2023-02-28T05:11:31;100780.69;;;0.26;100.00
68634;BME280;55625;47.072;22.192;2023-02-28T05:14:09;100801.84;;;0.27;100.00
68634;BME280;55625;47.072;22.192;2023-02-28T05:16:36;100791.84;;;0.26;100.00
68634;BME280;55625;47.072;22.192;2023-02-28T05:19:02;100791.84;;;0.26;100.00
68634;BME280;55625;47.072;22.192;2023-02-28T05:23:59;100795.44;;;0.27;100.00
68634;BME280;55625;47.072;22.192;2023-02-28T05:26:27;100800.31;;;0.30;100.00
68634;BME280;55625;47.072;22.192;2023-02-28T05:28:54;100799.63;;;0.33;100.00
68634;BME280;55625;47.072;22.192;2023-02-28T05:31:20;100797.63;;;0.34;100.00
68634;BME280;55625;47.072;22.192;2023-02-28T05:33:47;100797.63;;;0.34;100.00
68634;BME280;55625;47.072;22.192;2023-02-28T05:36:13;100796.03;;;0.33;100.00
68634;BME280;55625;47.072;22.192;2023-02-28T05:38:38;100810.44;;;0.35;100.00
68634;BME280;55625;47.072;22.192;2023-02-28T05:41:09;100815.66;;;0.36;100.00
68634;BME280;55625;47.072;22.192;2023-02-28T05:43:36;100813.31;;;0.38;100.00
68634;BME280;55625;47.072;22.192;2023-02-28T05:46:08;100814.84;;;0.36;100.00
68634;BME280;55625;47.072;22.192;2023-02-28T05:48:35;100811.25;;;0.35;100.00
68634;BME280;55625;47.072;22.192;2023-02-28T05:51:04;100819.97;;;0.34;100.00
68634;BME280;55625;47.072;22.192;2023-02-28T05:53:30;100820.44;;;0.36;100.00
68634;BME280;55625;47.072;22.192;2023-02-28T05:55:57;100826.91;;;0.40;100.00
68634;BME280;55625;47.072;22.192;2023-02-28T05:58:23;100832.50;;;0.40;100.00
68634;BME280;55625;47.072;22.192;2023-02-28T06:00:51;100832.94;;;0.42;100.00
68634;BME280;55625;47.072;22.192;2023-02-28T06:03:17;100836.75;;;0.49;100.00
68634;BME280;55625;47.072;22.192;2023-02-28T06:05:43;100835.94;;;0.49;100.00
68634;BME280;55625;47.072;22.192;2023-02-28T06:08:08;100836.00;;;0.52;100.00
68634;BME280;55625;47.072;22.192;2023-02-28T06:10:35;100839.63;;;0.53;100.00
68634;BME280;55625;47.072;22.192;2023-02-28T06:13:02;100845.22;;;0.53;100.00
68634;BME280;55625;47.072;22.192;2023-02-28T06:15:28;100850.69;;;0.49;100.00
68634;BME280;55625;47.072;22.192;2023-02-28T06:17:55;100847.53;;;0.51;100.00
68634;BME280;55625;47.072;22.192;2023-02-28T06:20:26;100854.31;;;0.50;100.00
68634;BME280;55625;47.072;22.192;2023-02-28T06:22:56;100861.50;;;0.51;100.00
68634;BME280;55625;47.072;22.192;2023-02-28T06:25:25;100863.22;;;0.55;100.00
68634;BME280;55625;47.072;22.192;2023-02-28T06:27:51;100866.56;;;0.61;100.00
68634;BME280;55625;47.072;22.192;2023-02-28T06:30:17;100867.03;;;0.63;100.00
68634;BME280;55625;47.072;22.192;2023-02-28T06:32:43;100871.56;;;0.68;100.00
68634;BME280;55625;47.072;22.192;2023-02-28T06:35:09;100865.06;;;0.64;100.00
68634;BME280;55625;47.072;22.192;2023-02-28T06:37:35;100878.75;;;0.69;100.00
68634;BME280;55625;47.072;22.192;2023-02-28T06:40:01;100867.03;;;0.63;100.00
68634;BME280;55625;47.072;22.192;2023-02-28T06:42:28;100867.84;;;0.64;100.00
68634;BME280;55625;47.072;22.192;2023-02-28T06:44:56;100873.97;;;0.69;100.00
68634;BME280;55625;47.072;22.192;2023-02-28T06:47:23;100880.13;;;0.75;100.00
68634;BME280;55625;47.072;22.192;2023-02-28T06:49:49;100871.00;;;0.78;100.00
68634;BME280;55625;47.072;22.192;2023-02-28T06:52:15;100879.13;;;0.83;100.00
68634;BME280;55625;47.072;22.192;2023-02-28T06:54:41;100878.31;;;0.82;100.00
68634;BME280;55625;47.072;22.192;2023-02-28T06:57:08;100884.72;;;0.83;100.00
68634;BME280;55625;47.072;22.192;2023-02-28T06:59:34;100874.97;;;0.77;100.00
68634;BME280;55625;47.072;22.192;2023-02-28T07:02:01;100872.91;;;0.74;100.00
68634;BME280;55625;47.072;22.192;2023-02-28T07:04:28;100875.59;;;0.70;100.00
68634;BME280;55625;47.072;22.192;2023-02-28T07:06:55;100872.44;;;0.72;100.00
68634;BME280;55625;47.072;22.192;2023-02-28T07:09:23;100870.19;;;0.77;100.00
68634;BME280;55625;47.072;22.192;2023-02-28T07:11:48;100873.00;;;0.77;100.00
68634;BME280;55625;47.072;22.192;2023-02-28T07:14:14;100880.66;;;0.80;100.00
68634;BME280;55625;47.072;22.192;2023-02-28T07:16:40;100878.66;;;0.81;100.00
68634;BME280;55625;47.072;22.192;2023-02-28T07:19:06;100880.66;;;0.80;100.00
68634;BME280;55625;47.072;22.192;2023-02-28T07:21:32;100882.53;;;0.76;100.00
68634;BME280;55625;47.072;22.192;2023-02-28T07:23:58;100885.06;;;0.81;100.00
68634;BME280;55625;47.072;22.192;2023-02-28T07:26:23;100892.28;;;0.82;100.00
68634;BME280;55625;47.072;22.192;2023-02-28T07:28:50;100885.53;;;0.83;100.00
68634;BME280;55625;47.072;22.192;2023-02-28T07:31:17;100893.63;;;0.88;100.00
68634;BME280;55625;47.072;22.192;2023-02-28T07:33:44;100882.09;;;0.90;100.00
68634;BME280;55625;47.072;22.192;2023-02-28T07:36:15;100885.25;;;0.88;100.00
68634;BME280;55625;47.072;22.192;2023-02-28T07:38:47;100882.44;;;0.88;100.00
68634;BME280;55625;47.072;22.192;2023-02-28T07:41:15;100878.94;;;0.91;100.00
68634;BME280;55625;47.072;22.192;2023-02-28T07:43:41;100883.84;;;0.95;100.00
68634;BME280;55625;47.072;22.192;2023-02-28T07:46:11;100883.84;;;0.95;100.00
68634;BME280;55625;47.072;22.192;2023-02-28T07:48:38;100881.50;;;0.97;100.00
68634;BME280;55625;47.072;22.192;2023-02-28T07:51:04;100883.13;;;0.98;100.00
68634;BME280;55625;47.072;22.192;2023-02-28T07:53:31;100883.13;;;0.98;100.00
68634;BME280;55625;47.072;22.192;2023-02-28T07:55:58;100880.50;;;1.05;100.00
68634;BME280;55625;47.072;22.192;2023-02-28T07:58:26;100886.44;;;1.03;100.00
68634;BME280;55625;47.072;22.192;2023-02-28T08:00:52;100875.63;;;1.02;100.00
68634;BME280;55625;47.072;22.192;2023-02-28T08:03:20;100882.44;;;0.88;100.00
68634;BME280;55625;47.072;22.192;2023-02-28T08:05:46;100885.97;;;0.85;100.00
68634;BME280;55625;47.072;22.192;2023-02-28T08:08:14;100888.75;;;0.85;100.00
68634;BME280;55625;47.072;22.192;2023-02-28T08:10:40;100884.78;;;0.86;100.00
68634;BME280;55625;47.072;22.192;2023-02-28T08:13:06;100882.44;;;0.88;100.00
68634;BME280;55625;47.072;22.192;2023-02-28T08:15:32;100888.50;;;0.90;100.00
68634;BME280;55625;47.072;22.192;2023-02-28T08:17:58;100879.41;;;0.93;100.00
68634;BME280;55625;47.072;22.192;2023-02-28T08:20:25;100878.69;;;0.97;100.00
68634;BME280;55625;47.072;22.192;2023-02-28T08:22:51;100886.19;;;0.92;100.00
68634;BME280;55625;47.072;22.192;2023-02-28T08:25:17;100881.72;;;0.91;100.00
68634;BME280;55625;47.072;22.192;2023-02-28T08:27:43;100884.00;;;1.02;100.00
68634;BME280;55625;47.072;22.192;2023-02-28T08:30:12;100883.38;;;1.08;100.00
68634;BME280;55625;47.072;22.192;2023-02-28T08:32:38;100884.53;;;1.07;100.00
68634;BME280;55625;47.072;22.192;2023-02-28T08:35:05;100890.59;;;1.09;100.00
68634;BME280;55625;47.072;22.192;2023-02-28T08:37:31;100889.41;;;1.10;100.00
68634;BME280;55625;47.072;22.192;2023-02-28T08:39:57;100879.94;;;1.15;100.00
68634;BME280;55625;47.072;22.192;2023-02-28T08:42:23;100884.81;;;1.18;100.00
68634;BME280;55625;47.072;22.192;2023-02-28T08:44:49;100884.56;;;1.23;100.00
68634;BME280;55625;47.072;22.192;2023-02-28T08:47:15;100885.91;;;1.29;100.00
68634;BME280;55625;47.072;22.192;2023-02-28T08:49:41;100895.47;;;1.28;100.00
68634;BME280;55625;47.072;22.192;2023-02-28T08:52:07;100891.56;;;1.33;100.00
68634;BME280;55625;47.072;22.192;2023-02-28T08:54:33;100890.41;;;1.34;100.00
68634;BME280;55625;47.072;22.192;2023-02-28T08:57:00;100890.84;;;1.36;100.00
68634;BME280;55625;47.072;22.192;2023-02-28T08:59:26;100888.50;;;1.38;100.00
68634;BME280;55625;47.072;22.192;2023-02-28T09:01:52;100884.16;;;1.40;100.00
68634;BME280;55625;47.072;22.192;2023-02-28T09:04:17;100880.53;;;1.55;100.00
68634;BME280;55625;47.072;22.192;2023-02-28T09:06:43;100868.69;;;1.62;100.00
68634;BME280;55625;47.072;22.192;2023-02-28T09:09:10;100869.72;;;1.73;100.00
68634;BME280;55625;47.072;22.192;2023-02-28T09:11:36;100873.75;;;1.92;100.00
68634;BME280;55625;47.072;22.192;2023-02-28T09:14:03;100868.72;;;2.01;100.00
68634;BME280;55625;47.072;22.192;2023-02-28T09:16:31;100870.50;;;2.09;100.00
68634;BME280;55625;47.072;22.192;2023-02-28T09:18:57;100870.13;;;2.10;98.98
68634;BME280;55625;47.072;22.192;2023-02-28T09:21:23;100869.94;;;2.19;98.64
68634;BME280;55625;47.072;22.192;2023-02-28T09:23:50;100876.47;;;2.27;98.08
68634;BME280;55625;47.072;22.192;2023-02-28T09:26:26;100876.47;;;2.27;97.63
68634;BME280;55625;47.072;22.192;2023-02-28T09:28:53;100882.53;;;2.29;98.48
68634;BME280;55625;47.072;22.192;2023-02-28T09:31:26;100872.25;;;2.36;96.73
68634;BME280;55625;47.072;22.192;2023-02-28T09:33:56;100889.88;;;2.37;97.17
68634;BME280;55625;47.072;22.192;2023-02-28T09:36:24;100875.44;;;2.35;96.66
68634;BME280;55625;47.072;22.192;2023-02-28T09:38:50;100881.91;;;2.39;95.55
68634;BME280;55625;47.072;22.192;2023-02-28T09:41:25;100874.00;;;2.44;96.05
68634;BME280;55625;47.072;22.192;2023-02-28T09:43:56;100870.13;;;2.49;97.31
68634;BME280;55625;47.072;22.192;2023-02-28T09:48:55;100866.03;;;2.66;95.15
68634;BME280;55625;47.072;22.192;2023-02-28T09:54:20;100878.34;;;2.80;94.39
68634;BME280;55625;47.072;22.192;2023-02-28T10:05:43;100892.34;;;3.03;92.71
68634;BME280;55625;47.072;22.192;2023-02-28T10:08:39;100887.25;;;3.09;91.32
68634;BME280;55625;47.072;22.192;2023-02-28T10:11:09;100885.09;;;3.02;92.21
68634;BME280;55625;47.072;22.192;2023-02-28T10:13:56;100886.44;;;3.08;93.56
68634;BME280;55625;47.072;22.192;2023-02-28T10:17:07;100884.88;;;3.11;95.41
68634;BME280;55625;47.072;22.192;2023-02-28T10:22:40;100880.31;;;3.26;95.70
68634;BME280;55625;47.072;22.192;2023-02-28T10:25:23;100876.00;;;3.32;96.41
68634;BME280;55625;47.072;22.192;2023-02-28T10:27:52;100882.84;;;3.34;95.54
68634;BME280;55625;47.072;22.192;2023-02-28T10:30:19;100874.13;;;3.39;95.07
68634;BME280;55625;47.072;22.192;2023-02-28T10:32:51;100866.44;;;3.36;93.30
68634;BME280;55625;47.072;22.192;2023-02-28T10:35:24;100859.34;;;3.42;93.26
68634;BME280;55625;47.072;22.192;2023-02-28T10:38:01;100861.78;;;3.44;95.20
68634;BME280;55625;47.072;22.192;2023-02-28T10:40:36;100855.78;;;3.46;93.74
68634;BME280;55625;47.072;22.192;2023-02-28T10:43:21;100856.69;;;3.53;94.52
68634;BME280;55625;47.072;22.192;2023-02-28T10:46:22;100854.78;;;3.61;94.24
68634;BME280;55625;47.072;22.192;2023-02-28T10:49:06;100858.47;;;3.65;90.77
68634;BME280;55625;47.072;22.192;2023-02-28T10:51:40;100852.13;;;3.68;92.37
68634;BME280;55625;47.072;22.192;2023-02-28T10:54:19;100850.97;;;3.72;92.41
68634;BME280;55625;47.072;22.192;2023-02-28T10:56:48;100854.25;;;3.78;92.50
68634;BME280;55625;47.072;22.192;2023-02-28T10:59:31;100847.34;;;3.72;90.25
68634;BME280;55625;47.072;22.192;2023-02-28T11:01:57;100851.34;;;3.71;90.32
68634;BME280;55625;47.072;22.192;2023-02-28T11:07:22;100850.13;;;3.68;90.17
68634;BME280;55625;47.072;22.192;2023-02-28T11:09:56;100855.00;;;3.75;91.84
68634;BME280;55625;47.072;22.192;2023-02-28T11:12:33;100845.06;;;3.81;92.22
68634;BME280;55625;47.072;22.192;2023-02-28T11:20:39;100834.16;;;4.06;90.42
68634;BME280;55625;47.072;22.192;2023-02-28T11:23:12;100830.97;;;4.08;90.38
68634;BME280;55625;47.072;22.192;2023-02-28T11:25:39;100836.72;;;4.18;90.25
68634;BME280;55625;47.072;22.192;2023-02-28T11:31:17;100825.34;;;4.41;91.25
68634;BME280;55625;47.072;22.192;2023-02-28T11:33:53;100825.00;;;4.46;92.22
68634;BME280;55625;47.072;22.192;2023-02-28T11:36:32;100828.22;;;4.48;93.12
68634;BME280;55625;47.072;22.192;2023-02-28T11:39:10;100823.72;;;4.40;93.83
68634;BME280;55625;47.072;22.192;2023-02-28T11:45:03;100833.78;;;4.41;92.59
68634;BME280;55625;47.072;22.192;2023-02-28T11:56:21;100831.31;;;4.73;93.19
68634;BME280;55625;47.072;22.192;2023-02-28T11:59:04;100836.16;;;4.76;93.12
68634;BME280;55625;47.072;22.192;2023-02-28T12:05:45;100825.34;;;4.82;93.50
68634;BME280;55625;47.072;22.192;2023-02-28T12:11:43;100828.28;;;4.92;92.33
68634;BME280;55625;47.072;22.192;2023-02-28T12:18:03;100831.19;;;5.03;92.54
68634;BME280;55625;47.072;22.192;2023-02-28T12:20:53;100830.00;;;5.08;92.91
68634;BME280;55625;47.072;22.192;2023-02-28T12:23:47;100832.31;;;4.95;91.71
68634;BME280;55625;47.072;22.192;2023-02-28T12:32:23;100830.31;;;4.95;92.61
68634;BME280;55625;47.072;22.192;2023-02-28T12:40:25;100824.75;;;5.03;92.90
68634;BME280;55625;47.072;22.192;2023-02-28T12:42:59;100826.34;;;5.04;92.92
68634;BME280;55625;47.072;22.192;2023-02-28T12:46:34;100829.69;;;4.72;92.59
68634;BME280;55625;47.072;22.192;2023-02-28T12:48:50;100824.44;;;4.71;93.21
68634;BME280;55625;47.072;22.192;2023-02-28T12:51:18;100821.59;;;4.67;94.29
68634;BME280;55625;47.072;22.192;2023-02-28T12:59:54;100811.06;;;5.01;92.42
68634;BME280;55625;47.072;22.192;2023-02-28T13:09:08;100804.19;;;4.95;92.04
68634;BME280;55625;47.072;22.192;2023-02-28T13:11:49;100799.44;;;5.06;92.29
68634;BME280;55625;47.072;22.192;2023-02-28T13:14:28;100793.41;;;5.04;93.36
68634;BME280;55625;47.072;22.192;2023-02-28T13:17:18;100791.88;;;5.14;92.14
68634;BME280;55625;47.072;22.192;2023-02-28T13:22:41;100788.78;;;5.29;92.58
68634;BME280;55625;47.072;22.192;2023-02-28T13:28:13;100794.75;;;5.21;92.57
68634;BME280;55625;47.072;22.192;2023-02-28T13:31:00;100797.16;;;5.22;91.61
68634;BME280;55625;47.072;22.192;2023-02-28T13:33:35;100798.38;;;5.21;91.44
68634;BME280;55625;47.072;22.192;2023-02-28T13:36:26;100794.97;;;4.98;91.10
68634;BME280;55625;47.072;22.192;2023-02-28T13:42:57;100793.31;;;4.90;91.38
68634;BME280;55625;47.072;22.192;2023-02-28T13:45:29;100794.81;;;4.84;91.37
68634;BME280;55625;47.072;22.192;2023-02-28T13:48:15;100787.28;;;4.91;91.24
68634;BME280;55625;47.072;22.192;2023-02-28T13:50:43;100788.94;;;4.96;92.57
68634;BME280;55625;47.072;22.192;2023-02-28T13:53:23;100795.00;;;5.02;90.20
68634;BME280;55625;47.072;22.192;2023-02-28T13:56:05;100795.72;;;4.91;91.20
68634;BME280;55625;47.072;22.192;2023-02-28T14:01:53;100799.19;;;4.78;91.68
68634;BME280;55625;47.072;22.192;2023-02-28T14:07:25;100788.16;;;4.99;92.20
68634;BME280;55625;47.072;22.192;2023-02-28T14:10:04;100788.97;;;5.03;91.77
68634;BME280;55625;47.072;22.192;2023-02-28T14:15:36;100786.03;;;4.89;91.28
68634;BME280;55625;47.072;22.192;2023-02-28T14:24:29;100784.00;;;4.86;92.40
68634;BME280;55625;47.072;22.192;2023-02-28T14:27:24;100791.72;;;4.92;92.50
68634;BME280;55625;47.072;22.192;2023-02-28T14:30:13;100788.84;;;4.89;91.84
68634;BME280;55625;47.072;22.192;2023-02-28T14:33:35;100790.75;;;4.78;92.09
68634;BME280;55625;47.072;22.192;2023-02-28T14:36:37;100778.72;;;4.81;91.98
68634;BME280;55625;47.072;22.192;2023-02-28T14:39:17;100777.91;;;4.77;92.58
68634;BME280;55625;47.072;22.192;2023-02-28T14:41:46;100777.97;;;4.84;91.85
68634;BME280;55625;47.072;22.192;2023-02-28T14:44:25;100780.25;;;4.67;92.11
68634;BME280;55625;47.072;22.192;2023-02-28T14:47:02;100770.47;;;4.54;94.11
68634;BME280;55625;47.072;22.192;2023-02-28T14:49:45;100768.44;;;4.51;93.23
68634;BME280;55625;47.072;22.192;2023-02-28T14:52:28;100767.69;;;4.58;92.90
68634;BME280;55625;47.072;22.192;2023-02-28T14:55:06;100771.44;;;4.73;93.06
68634;BME280;55625;47.072;22.192;2023-02-28T14:57:40;100774.97;;;4.62;92.31
68634;BME280;55625;47.072;22.192;2023-02-28T15:02:47;100779.31;;;4.56;93.69
68634;BME280;55625;47.072;22.192;2023-02-28T15:07:46;100773.09;;;4.77;93.76
68634;BME280;55625;47.072;22.192;2023-02-28T15:10:26;100787.63;;;4.86;92.97
68634;BME280;55625;47.072;22.192;2023-02-28T15:12:58;100780.00;;;4.87;92.63
68634;BME280;55625;47.072;22.192;2023-02-28T15:20:49;100791.25;;;4.87;92.34
68634;BME280;55625;47.072;22.192;2023-02-28T15:23:16;100786.72;;;4.75;91.77
68634;BME280;55625;47.072;22.192;2023-02-28T15:25:43;100786.69;;;4.72;92.14
68634;BME280;55625;47.072;22.192;2023-02-28T15:28:18;100779.03;;;4.68;92.34
68634;BME280;55625;47.072;22.192;2023-02-28T15:31:03;100781.84;;;4.68;93.01
68634;BME280;55625;47.072;22.192;2023-02-28T15:33:56;100772.97;;;4.63;92.82
68634;BME280;55625;47.072;22.192;2023-02-28T15:36:28;100782.25;;;4.67;91.84
68634;BME280;55625;47.072;22.192;2023-02-28T15:38:54;100775.03;;;4.70;91.84
68634;BME280;55625;47.072;22.192;2023-02-28T15:41:29;100770.56;;;4.61;93.87